createdAt,value
2024-01-12T00:00:58.883Z,49.11
2024-01-12T00:02:05.566Z,48.94
2024-01-12T00:03:12.218Z,48.59
2024-01-12T00:04:18.936Z,48.93
2024-01-12T00:05:25.659Z,48.67
2024-01-12T00:06:32.476Z,48.75
2024-01-12T00:07:39.213Z,48.84
2024-01-12T00:08:45.901Z,49.11
2024-01-12T00:09:52.559Z,49.03
2024-01-12T00:10:59.233Z,49.18
2024-01-12T00:12:05.890Z,49.09
2024-01-12T00:13:12.559Z,48.63
2024-01-12T00:14:19.233Z,49.04
2024-01-12T00:15:25.901Z,48.78
2024-01-12T00:16:32.583Z,48.57
2024-01-12T00:17:39.385Z,48.66
2024-01-12T00:18:46.096Z,48.88
2024-01-12T00:19:52.753Z,48.77
2024-01-12T00:20:59.496Z,48.81
2024-01-12T00:22:06.209Z,49.03
2024-01-12T00:23:12.889Z,48.90
2024-01-12T00:24:19.556Z,48.47
2024-01-12T00:25:26.221Z,48.44
2024-01-12T00:26:32.917Z,48.72
2024-01-12T00:27:39.744Z,48.67
2024-01-12T00:28:46.393Z,48.93
2024-01-12T00:29:53.194Z,48.98
2024-01-12T00:30:59.976Z,48.90
2024-01-12T00:32:06.667Z,48.82
2024-01-12T00:33:13.410Z,48.58
2024-01-12T00:34:20.156Z,48.50
2024-01-12T00:35:26.849Z,48.81
2024-01-12T00:36:33.492Z,48.60
2024-01-12T00:37:40.146Z,48.62
2024-01-12T00:38:46.859Z,48.82
2024-01-12T00:39:53.509Z,49.00
2024-01-12T00:41:00.209Z,48.96
2024-01-12T00:42:06.874Z,48.87
2024-01-12T00:43:13.542Z,48.83
2024-01-12T00:44:20.230Z,48.67
2024-01-12T00:45:26.871Z,48.59
2024-01-12T00:46:33.556Z,48.76
2024-01-12T00:47:40.283Z,48.63
2024-01-12T00:48:47.142Z,48.73
2024-01-12T00:49:53.850Z,49.14
2024-01-12T00:51:00.576Z,49.02
2024-01-12T00:52:07.245Z,49.00
2024-01-12T00:53:13.933Z,48.66
2024-01-12T00:54:20.574Z,48.76
2024-01-12T00:55:27.240Z,48.77
2024-01-12T00:56:33.916Z,48.98
2024-01-12T00:57:40.560Z,48.71
2024-01-12T00:58:47.207Z,48.97
2024-01-12T00:59:53.975Z,49.02
2024-01-12T01:01:00.689Z,48.93
2024-01-12T01:02:07.350Z,48.98
2024-01-12T01:03:14.070Z,48.91
2024-01-12T01:04:20.749Z,48.93
2024-01-12T01:05:27.414Z,48.64
2024-01-12T01:06:34.137Z,48.64
2024-01-12T01:07:40.780Z,48.94
2024-01-12T01:08:47.510Z,49.10
2024-01-12T01:09:54.153Z,49.12
2024-01-12T01:11:00.825Z,49.31
2024-01-12T01:12:07.539Z,48.96
2024-01-12T01:13:14.167Z,48.65
2024-01-12T01:14:20.853Z,48.52
2024-01-12T01:15:27.517Z,48.69
2024-01-12T01:16:34.610Z,48.82
2024-01-12T01:17:41.279Z,48.45
2024-01-12T01:18:48.018Z,48.74
2024-01-12T01:19:54.840Z,48.90
2024-01-12T01:21:01.571Z,49.08
2024-01-12T01:22:08.201Z,48.76
2024-01-12T01:23:14.915Z,48.61
2024-01-12T01:24:21.587Z,48.44
2024-01-12T01:25:28.217Z,48.59
2024-01-12T01:26:34.903Z,48.56
2024-01-12T01:27:41.542Z,48.65
2024-01-12T01:28:48.215Z,48.96
2024-01-12T01:29:54.909Z,48.90
2024-01-12T01:31:01.612Z,48.93
2024-01-12T01:32:08.452Z,48.88
2024-01-12T01:33:15.195Z,48.63
2024-01-12T01:34:22.109Z,48.60
2024-01-12T01:35:28.837Z,48.60
2024-01-12T01:36:35.530Z,48.63
2024-01-12T01:37:42.176Z,48.79
2024-01-12T01:38:48.954Z,48.89
2024-01-12T01:39:55.682Z,49.12
2024-01-12T01:41:02.373Z,49.11
2024-01-12T01:42:09.028Z,48.89
2024-01-12T01:43:15.706Z,48.44
2024-01-12T01:44:22.393Z,48.60
2024-01-12T01:45:29.017Z,48.72
2024-01-12T01:46:35.694Z,48.66
2024-01-12T01:47:42.439Z,48.59
2024-01-12T01:48:49.144Z,48.82
2024-01-12T01:49:55.809Z,48.86
2024-01-12T01:51:02.510Z,48.82
2024-01-12T01:52:09.144Z,49.12
2024-01-12T01:53:15.907Z,48.69
2024-01-12T01:54:22.711Z,48.68
2024-01-12T01:55:29.397Z,48.65
2024-01-12T01:56:36.097Z,48.81
2024-01-12T01:57:42.759Z,48.61
2024-01-12T01:58:49.536Z,48.79
2024-01-12T01:59:56.325Z,49.07
2024-01-12T02:01:03.019Z,48.93
2024-01-12T02:02:09.729Z,49.25
2024-01-12T02:03:16.574Z,48.60
2024-01-12T02:04:23.312Z,48.80
2024-01-12T02:05:30.016Z,48.80
2024-01-12T02:06:36.840Z,48.90
2024-01-12T02:07:43.503Z,48.81
2024-01-12T02:08:50.242Z,48.79
2024-01-12T02:09:57.003Z,48.83
2024-01-12T02:11:03.650Z,49.20
2024-01-12T02:12:10.303Z,48.83
2024-01-12T02:13:16.972Z,48.64
2024-01-12T02:14:23.712Z,48.65
2024-01-12T02:15:30.390Z,48.57
2024-01-12T02:16:37.099Z,48.67
2024-01-12T02:17:43.826Z,48.76
2024-01-12T02:18:50.605Z,49.05
2024-01-12T02:19:57.359Z,49.10
2024-01-12T02:21:04.106Z,49.10
2024-01-12T02:22:10.810Z,48.86
2024-01-12T02:23:17.512Z,48.76
2024-01-12T02:24:24.198Z,48.38
2024-01-12T02:25:31.111Z,48.70
2024-01-12T02:26:37.809Z,48.53
2024-01-12T02:27:44.466Z,48.74
2024-01-12T02:28:51.146Z,48.69
2024-01-12T02:29:57.930Z,48.91
2024-01-12T02:31:04.743Z,48.84
2024-01-12T02:32:11.431Z,48.72
2024-01-12T02:33:18.137Z,48.75
2024-01-12T02:34:24.783Z,48.78
2024-01-12T02:35:31.462Z,48.55
2024-01-12T02:36:38.143Z,48.46
2024-01-12T02:37:44.905Z,48.58
2024-01-12T02:38:51.665Z,48.65
2024-01-12T02:39:58.346Z,48.91
2024-01-12T02:41:04.998Z,48.93
2024-01-12T02:42:11.676Z,48.91
2024-01-12T02:43:18.360Z,48.43
2024-01-12T02:44:25.028Z,48.62
2024-01-12T02:45:31.664Z,48.85
2024-01-12T02:46:38.347Z,48.47
2024-01-12T02:47:45.086Z,48.78
2024-01-12T02:48:51.889Z,49.14
2024-01-12T02:49:58.555Z,48.82
2024-01-12T02:51:05.319Z,48.83
2024-01-12T02:52:11.984Z,49.15
2024-01-12T02:53:18.714Z,48.78
2024-01-12T02:54:25.365Z,48.68
2024-01-12T02:55:32.096Z,48.86
2024-01-12T02:56:38.857Z,48.79
2024-01-12T02:57:45.628Z,48.78
2024-01-12T02:58:52.289Z,48.83
2024-01-12T02:59:59.051Z,49.08
2024-01-12T03:01:05.765Z,49.02
2024-01-12T03:02:12.701Z,48.88
2024-01-12T03:03:19.483Z,48.72
2024-01-12T03:04:26.177Z,48.44
2024-01-12T03:05:32.921Z,48.80
2024-01-12T03:06:39.893Z,48.47
2024-01-12T03:07:46.614Z,48.91
2024-01-12T03:08:53.293Z,48.92
2024-01-12T03:10:00.056Z,48.66
2024-01-12T03:11:06.764Z,49.01
2024-01-12T03:12:13.430Z,49.23
2024-01-12T03:13:20.287Z,48.65
2024-01-12T03:14:27.051Z,48.71
2024-01-12T03:15:33.793Z,48.68
2024-01-12T03:16:40.449Z,48.87
2024-01-12T03:17:47.266Z,48.78
2024-01-12T03:18:54.290Z,48.86
2024-01-12T03:20:01.061Z,49.11
2024-01-12T03:21:07.790Z,49.16
2024-01-12T03:22:14.455Z,49.18
2024-01-12T03:23:21.129Z,48.86
2024-01-12T03:24:27.815Z,48.77
2024-01-12T03:25:34.477Z,48.76
2024-01-12T03:26:41.318Z,48.98
2024-01-12T03:27:48.042Z,48.67
2024-01-12T03:28:54.800Z,49.00
2024-01-12T03:30:01.715Z,49.40
2024-01-12T03:31:08.692Z,49.22
2024-01-12T03:32:15.527Z,49.30
2024-01-12T03:33:22.240Z,48.93
2024-01-12T03:34:29.062Z,48.75
2024-01-12T03:35:35.774Z,48.65
2024-01-12T03:36:42.401Z,48.82
2024-01-12T03:37:49.073Z,48.76
2024-01-12T03:38:56.008Z,49.07
2024-01-12T03:40:02.801Z,49.13
2024-01-12T03:41:09.440Z,49.06
2024-01-12T03:42:16.096Z,48.71
2024-01-12T03:43:22.773Z,48.88
2024-01-12T03:44:29.458Z,48.94
2024-01-12T03:45:36.111Z,48.59
2024-01-12T03:46:43.249Z,48.89
2024-01-12T03:47:49.994Z,48.88
2024-01-12T03:48:56.881Z,49.06
2024-01-12T03:50:03.630Z,49.16
2024-01-12T03:51:10.342Z,49.13
2024-01-12T03:52:17.087Z,48.99
2024-01-12T03:53:23.783Z,48.75
2024-01-12T03:54:30.439Z,48.71
2024-01-12T03:55:37.113Z,48.68
2024-01-12T03:56:43.796Z,48.56
2024-01-12T03:57:50.440Z,48.86
2024-01-12T03:58:57.100Z,48.99
2024-01-12T04:00:03.929Z,49.00
2024-01-12T04:01:10.617Z,49.53
2024-01-12T04:02:17.384Z,49.11
2024-01-12T04:03:24.066Z,49.04
2024-01-12T04:04:30.829Z,48.63
2024-01-12T04:05:37.618Z,48.61
2024-01-12T04:06:44.507Z,48.49
2024-01-12T04:07:51.240Z,48.65
2024-01-12T04:08:57.892Z,49.15
2024-01-12T04:10:04.617Z,49.33
2024-01-12T04:11:11.266Z,49.24
2024-01-12T04:12:17.934Z,48.93
2024-01-12T04:13:24.605Z,48.81
2024-01-12T04:14:34.177Z,48.86
2024-01-12T04:15:42.778Z,49.03
2024-01-12T04:16:49.445Z,48.83
2024-01-12T04:17:56.193Z,49.32
2024-01-12T04:19:02.994Z,48.95
2024-01-12T04:20:09.725Z,49.16
2024-01-12T04:21:16.384Z,49.04
2024-01-12T04:22:23.076Z,49.06
2024-01-12T04:23:29.800Z,48.95
2024-01-12T04:24:36.487Z,48.92
2024-01-12T04:25:43.181Z,48.76
2024-01-12T04:26:49.872Z,48.76
2024-01-12T04:27:56.519Z,49.12
2024-01-12T04:29:03.169Z,49.02
2024-01-12T04:30:09.922Z,49.14
2024-01-12T04:31:16.647Z,49.06
2024-01-12T04:32:23.525Z,48.89
2024-01-12T04:33:30.306Z,48.69
2024-01-12T04:34:37.164Z,48.81
2024-01-12T04:35:43.965Z,48.79
2024-01-12T04:36:50.622Z,48.89
2024-01-12T04:37:57.301Z,49.30
2024-01-12T04:39:04.072Z,49.22
2024-01-12T04:40:11.109Z,49.31
2024-01-12T04:41:17.811Z,49.17
2024-01-12T04:42:24.455Z,48.85
2024-01-12T04:43:31.116Z,48.98
2024-01-12T04:44:37.815Z,48.89
2024-01-12T04:45:44.506Z,48.90
2024-01-12T04:46:51.187Z,49.11
2024-01-12T04:47:57.930Z,49.35
2024-01-12T04:49:04.699Z,49.03
2024-01-12T04:50:11.369Z,49.15
2024-01-12T04:51:18.039Z,49.29
2024-01-12T04:52:24.708Z,48.89
2024-01-12T04:53:31.420Z,48.97
2024-01-12T04:54:38.078Z,48.97
2024-01-12T04:55:44.741Z,48.82
2024-01-12T04:56:51.481Z,48.63
2024-01-12T04:57:58.162Z,49.12
2024-01-12T04:59:04.782Z,49.11
2024-01-12T05:00:11.470Z,49.25
2024-01-12T05:01:18.252Z,49.08
2024-01-12T05:02:24.992Z,48.79
2024-01-12T05:03:31.774Z,49.14
2024-01-12T05:04:38.447Z,49.08
2024-01-12T05:05:45.256Z,48.94
2024-01-12T05:06:52.028Z,48.84
2024-01-12T05:07:58.655Z,49.39
2024-01-12T05:09:05.403Z,49.08
2024-01-12T05:10:12.084Z,49.51
2024-01-12T05:11:18.770Z,49.52
2024-01-12T05:12:25.423Z,48.95
2024-01-12T05:13:32.167Z,48.78
2024-01-12T05:14:38.896Z,48.76
2024-01-12T05:15:45.548Z,48.91
2024-01-12T05:16:52.245Z,48.87
2024-01-12T05:17:59.064Z,49.06
2024-01-12T05:19:05.939Z,49.36
2024-01-12T05:20:12.705Z,49.28
2024-01-12T05:21:19.376Z,49.07
2024-01-12T05:22:26.059Z,48.80
2024-01-12T05:23:32.752Z,48.97
2024-01-12T05:24:39.399Z,48.93
2024-01-12T05:25:46.077Z,48.88
2024-01-12T05:26:52.748Z,49.16
2024-01-12T05:27:59.412Z,49.20
2024-01-12T05:29:06.068Z,49.10
2024-01-12T05:30:13.030Z,49.40
2024-01-12T05:31:19.813Z,49.04
2024-01-12T05:32:26.501Z,48.95
2024-01-12T05:33:33.357Z,49.08
2024-01-12T05:34:40.200Z,49.25
2024-01-12T05:35:46.924Z,49.25
2024-01-12T05:36:53.639Z,48.88
2024-01-12T05:38:00.333Z,49.56
2024-01-12T05:39:07.047Z,49.39
2024-01-12T05:40:13.747Z,49.03
2024-01-12T05:41:20.479Z,48.88
2024-01-12T05:42:27.137Z,49.15
2024-01-12T05:43:33.799Z,49.19
2024-01-12T05:44:40.538Z,49.10
2024-01-12T05:45:47.192Z,48.87
2024-01-12T05:46:53.838Z,49.31
2024-01-12T05:48:00.611Z,49.07
2024-01-12T05:49:07.582Z,49.17
2024-01-12T05:50:14.294Z,49.35
2024-01-12T05:51:20.950Z,48.98
2024-01-12T05:52:27.617Z,49.09
2024-01-12T05:53:34.314Z,49.10
2024-01-12T05:54:40.982Z,48.99
2024-01-12T05:55:47.636Z,49.34
2024-01-12T05:56:54.401Z,49.14
2024-01-12T05:58:01.049Z,49.59
2024-01-12T05:59:07.705Z,49.22
2024-01-12T06:00:14.647Z,49.47
2024-01-12T06:01:21.436Z,49.15
2024-01-12T06:02:28.121Z,50.43
2024-01-12T06:03:34.871Z,49.78
2024-01-12T06:04:41.544Z,49.60
2024-01-12T06:05:48.303Z,48.96
2024-01-12T06:06:55.016Z,49.34
2024-01-12T06:08:01.683Z,52.60
2024-01-12T06:09:08.370Z,50.15
2024-01-12T06:10:15.034Z,51.29
2024-01-12T06:11:21.739Z,52.27
2024-01-12T06:12:28.386Z,51.52
2024-01-12T06:13:35.068Z,50.58
2024-01-12T06:14:41.807Z,50.20
2024-01-12T06:15:48.438Z,49.66
2024-01-12T06:16:55.122Z,50.23
2024-01-12T06:18:01.996Z,50.42
2024-01-12T06:19:08.828Z,49.93
2024-01-12T06:20:15.764Z,49.48
2024-01-12T06:21:22.452Z,50.18
2024-01-12T06:22:29.113Z,50.53
2024-01-12T06:23:35.831Z,50.56
2024-01-12T06:24:42.500Z,49.89
2024-01-12T06:25:49.160Z,49.81
2024-01-12T06:26:55.892Z,49.39
2024-01-12T06:28:02.545Z,51.81
2024-01-12T06:29:09.200Z,52.38
2024-01-12T06:30:16.054Z,51.17
2024-01-12T06:31:22.794Z,50.36
2024-01-12T06:32:29.463Z,50.28
2024-01-12T06:33:36.176Z,49.96
2024-01-12T06:34:42.841Z,52.14
2024-01-12T06:35:49.532Z,49.97
2024-01-12T06:36:56.225Z,50.19
2024-01-12T06:38:02.899Z,50.61
2024-01-12T06:39:09.592Z,50.58
2024-01-12T06:40:16.332Z,49.06
2024-01-12T06:41:23.036Z,49.42
2024-01-12T06:42:29.680Z,49.52
2024-01-12T06:43:36.375Z,49.27
2024-01-12T06:44:43.075Z,50.42
2024-01-12T06:45:49.753Z,50.85
2024-01-12T06:46:56.430Z,50.79
2024-01-12T06:48:03.185Z,50.52
2024-01-12T06:49:09.912Z,50.17
2024-01-12T06:50:16.638Z,49.75
2024-01-12T06:51:23.292Z,51.03
2024-01-12T06:52:30.002Z,50.27
2024-01-12T06:53:36.701Z,50.78
2024-01-12T06:54:43.377Z,52.85
2024-01-12T06:55:50.021Z,51.23
2024-01-12T06:56:56.707Z,50.56
2024-01-12T06:58:03.343Z,50.58
2024-01-12T06:59:10.001Z,50.32
2024-01-12T07:00:16.834Z,50.40
2024-01-12T07:01:23.600Z,49.98
2024-01-12T07:02:30.344Z,50.42
2024-01-12T07:03:37.120Z,51.73
2024-01-12T07:04:43.769Z,50.37
2024-01-12T07:05:50.593Z,50.61
2024-01-12T07:06:57.312Z,50.24
2024-01-12T07:08:03.956Z,49.95
2024-01-12T07:09:10.683Z,50.01
2024-01-12T07:10:17.326Z,62.20
2024-01-12T07:11:24.027Z,54.69
2024-01-12T07:12:30.687Z,56.02
2024-01-12T07:13:37.480Z,49.51
2024-01-12T07:14:44.179Z,49.56
2024-01-12T07:15:51.436Z,49.60
2024-01-12T07:16:58.115Z,49.51
2024-01-12T07:18:04.936Z,49.69
2024-01-12T07:19:12.010Z,49.96
2024-01-12T07:20:19.878Z,49.51
2024-01-12T07:21:26.763Z,50.29
2024-01-12T07:22:33.448Z,49.67
2024-01-12T07:23:40.199Z,50.39
2024-01-12T07:24:46.848Z,49.52
2024-01-12T07:25:53.503Z,50.41
2024-01-12T07:27:00.385Z,62.78
2024-01-12T07:28:07.099Z,61.66
2024-01-12T07:29:14.079Z,74.17
2024-01-12T07:30:20.811Z,72.06
2024-01-12T07:31:27.481Z,68.56
2024-01-12T07:32:34.306Z,71.62
2024-01-12T07:33:41.168Z,78.42
2024-01-12T07:34:47.997Z,67.85
2024-01-12T07:35:54.721Z,67.71
2024-01-12T07:37:01.366Z,79.15
2024-01-12T07:38:08.039Z,61.29
2024-01-12T07:39:14.738Z,52.74
2024-01-12T07:40:21.392Z,54.18
2024-01-12T07:41:28.416Z,53.91
2024-01-12T07:42:35.178Z,53.17
2024-01-12T07:43:41.844Z,69.31
2024-01-12T07:44:48.631Z,78.05
2024-01-12T07:45:55.297Z,76.09
2024-01-12T07:47:01.975Z,76.49
2024-01-12T07:48:08.663Z,77.72
2024-01-12T07:49:15.352Z,80.35
2024-01-12T07:50:22.069Z,81.10
2024-01-12T07:51:28.711Z,79.21
2024-01-12T07:52:35.384Z,75.94
2024-01-12T07:53:42.111Z,82.02
2024-01-12T07:54:48.799Z,73.28
2024-01-12T07:55:55.446Z,51.14
2024-01-12T07:57:02.256Z,51.89
2024-01-12T07:58:08.971Z,51.24
2024-01-12T07:59:15.645Z,50.46
2024-01-12T08:00:23.295Z,52.72
2024-01-12T08:01:29.960Z,62.42
2024-01-12T08:02:36.651Z,57.35
2024-01-12T08:03:43.324Z,58.59
2024-01-12T08:04:50.045Z,51.61
2024-01-12T08:05:56.735Z,52.82
2024-01-12T08:07:03.586Z,62.55
2024-01-12T08:08:10.307Z,53.53
2024-01-12T08:09:16.983Z,50.19
2024-01-12T08:10:23.620Z,51.37
2024-01-12T08:11:36.088Z,50.31
2024-01-12T08:12:41.869Z,67.67
2024-01-12T08:13:48.541Z,63.91
2024-01-12T08:14:55.242Z,67.10
2024-01-12T08:16:01.901Z,59.50
2024-01-12T08:17:08.565Z,57.62
2024-01-12T08:18:15.525Z,58.65
2024-01-12T08:19:22.474Z,62.22
2024-01-12T08:20:29.235Z,55.73
2024-01-12T08:21:45.310Z,57.57
2024-01-12T08:22:47.510Z,63.29
2024-01-12T08:23:54.194Z,59.46
2024-01-12T08:25:01.008Z,68.83
2024-01-12T08:26:07.674Z,66.89
2024-01-12T08:27:17.141Z,64.05
2024-01-12T08:28:25.645Z,62.44
2024-01-12T08:29:32.385Z,63.94
2024-01-12T08:30:39.059Z,63.32
2024-01-12T08:31:45.695Z,57.77
2024-01-12T08:32:52.453Z,60.09
2024-01-12T08:33:59.238Z,60.23
2024-01-12T08:35:06.039Z,58.70
2024-01-12T08:36:12.788Z,60.32
2024-01-12T08:37:19.443Z,55.86
2024-01-12T08:38:26.121Z,69.22
2024-01-12T08:39:32.776Z,61.66
2024-01-12T08:40:39.771Z,56.18
2024-01-12T08:41:46.417Z,55.27
2024-01-12T08:42:53.081Z,63.21
2024-01-12T08:43:59.740Z,65.43
2024-01-12T08:45:06.585Z,61.47
2024-01-12T08:46:13.248Z,64.76
2024-01-12T08:47:19.929Z,64.49
2024-01-12T08:48:26.734Z,54.06
2024-01-12T08:49:33.487Z,54.32
2024-01-12T08:50:40.158Z,53.55
2024-01-12T08:51:46.847Z,54.82
2024-01-12T08:52:53.516Z,56.73
2024-01-12T08:54:00.351Z,64.98
2024-01-12T08:55:07.171Z,54.48
2024-01-12T08:56:13.859Z,54.81
2024-01-12T08:57:20.533Z,52.69
2024-01-12T08:58:27.188Z,56.97
2024-01-12T08:59:33.897Z,53.39
2024-01-12T09:00:40.594Z,60.60
2024-01-12T09:01:47.264Z,52.23
2024-01-12T09:02:54.012Z,53.78
2024-01-12T09:04:02.785Z,52.05
2024-01-12T09:05:09.801Z,51.93
2024-01-12T09:06:16.635Z,53.27
2024-01-12T09:07:23.579Z,54.25
2024-01-12T09:08:30.296Z,55.18
2024-01-12T09:09:37.959Z,51.19
2024-01-12T09:10:44.626Z,51.64
2024-01-12T09:11:51.405Z,52.16
2024-01-12T09:12:58.056Z,51.61
2024-01-12T09:14:06.647Z,52.17
2024-01-12T09:15:15.679Z,70.03
2024-01-12T09:16:22.335Z,74.24
2024-01-12T09:17:29.122Z,74.31
2024-01-12T09:18:36.135Z,73.35
2024-01-12T09:19:42.932Z,77.57
2024-01-12T09:20:49.710Z,78.53
2024-01-12T09:21:56.359Z,81.44
2024-01-12T09:23:03.042Z,81.16
2024-01-12T09:24:09.719Z,69.18
2024-01-12T09:25:16.373Z,61.52
2024-01-12T09:26:23.117Z,67.46
2024-01-12T09:27:29.819Z,67.48
2024-01-12T09:28:36.458Z,69.94
2024-01-12T09:29:43.158Z,60.93
2024-01-12T09:30:49.892Z,66.46
2024-01-12T09:31:56.685Z,57.33
2024-01-12T09:33:03.692Z,76.81
2024-01-12T09:34:10.753Z,69.95
2024-01-12T09:35:17.635Z,64.98
2024-01-12T09:36:24.277Z,61.54
2024-01-12T09:37:30.963Z,57.46
2024-01-12T09:38:37.683Z,52.67
2024-01-12T09:39:44.344Z,66.43
2024-01-12T09:40:51.045Z,61.33
2024-01-12T09:41:57.720Z,69.70
2024-01-12T09:43:04.446Z,69.65
2024-01-12T09:44:11.262Z,67.92
2024-01-12T09:45:22.470Z,75.79
2024-01-12T09:46:30.084Z,83.03
2024-01-12T09:47:36.896Z,74.30
2024-01-12T09:48:43.691Z,74.87
2024-01-12T09:49:50.494Z,76.40
2024-01-12T09:50:57.282Z,77.57
2024-01-12T09:52:03.946Z,76.76
2024-01-12T09:53:10.619Z,73.60
2024-01-12T09:54:17.321Z,67.84
2024-01-12T09:55:23.994Z,63.62
2024-01-12T09:56:39.528Z,65.06
2024-01-12T09:57:42.329Z,69.64
2024-01-12T09:58:48.984Z,67.18
2024-01-12T09:59:55.708Z,67.50
2024-01-12T10:01:02.385Z,68.60
2024-01-12T10:02:09.050Z,70.00
2024-01-12T10:03:15.828Z,79.31
2024-01-12T10:04:24.862Z,72.67
2024-01-12T10:05:31.876Z,71.50
2024-01-12T10:06:38.873Z,76.06
2024-01-12T10:07:45.676Z,78.58
2024-01-12T10:08:52.363Z,79.19
2024-01-12T10:09:59.016Z,76.97
2024-01-12T10:11:05.706Z,67.49
2024-01-12T10:12:12.538Z,77.74
2024-01-12T10:13:19.184Z,77.38
2024-01-12T10:14:25.898Z,82.18
2024-01-12T10:15:32.560Z,74.55
2024-01-12T10:16:39.237Z,68.83
2024-01-12T10:17:46.045Z,65.40
2024-01-12T10:18:52.992Z,54.43
2024-01-12T10:19:59.760Z,70.15
2024-01-12T10:21:06.630Z,63.26
2024-01-12T10:22:13.368Z,69.92
2024-01-12T10:23:20.034Z,70.13
2024-01-12T10:24:26.663Z,68.97
2024-01-12T10:25:33.366Z,75.65
2024-01-12T10:26:40.084Z,78.93
2024-01-12T10:27:46.735Z,76.91
2024-01-12T10:28:53.433Z,70.14
2024-01-12T10:30:00.322Z,54.42
2024-01-12T10:31:07.174Z,63.74
2024-01-12T10:32:13.826Z,75.38
2024-01-12T10:33:20.631Z,76.33
2024-01-12T10:34:27.406Z,54.30
2024-01-12T10:35:34.479Z,55.32
2024-01-12T10:36:41.148Z,52.69
2024-01-12T10:37:47.831Z,73.61
2024-01-12T10:38:54.541Z,74.70
2024-01-12T10:40:01.198Z,51.98
2024-01-12T10:41:07.862Z,52.32
2024-01-12T10:42:14.553Z,58.75
2024-01-12T10:43:21.215Z,54.74
2024-01-12T10:44:27.910Z,53.46
2024-01-12T10:45:36.215Z,53.14
2024-01-12T10:46:44.005Z,54.46
2024-01-12T10:47:50.781Z,52.53
2024-01-12T10:48:57.609Z,77.09
2024-01-12T10:50:04.411Z,78.79
2024-01-12T10:51:11.565Z,71.34
2024-01-12T10:52:20.071Z,54.50
2024-01-12T10:53:27.474Z,76.77
2024-01-12T10:54:34.158Z,54.63
2024-01-12T10:55:40.837Z,53.66
2024-01-12T10:56:47.514Z,54.09
2024-01-12T10:57:54.177Z,56.04
2024-01-12T10:59:00.838Z,56.76
2024-01-12T11:00:07.592Z,58.05
2024-01-12T11:01:14.666Z,64.08
2024-01-12T11:02:21.360Z,57.43
2024-01-12T11:03:28.346Z,61.61
2024-01-12T11:04:35.042Z,55.12
2024-01-12T11:05:41.768Z,58.01
2024-01-12T11:06:48.544Z,57.30
2024-01-12T11:07:55.336Z,52.95
2024-01-12T11:09:02.014Z,55.56
2024-01-12T11:10:08.713Z,54.29
2024-01-12T11:11:15.352Z,53.10
2024-01-12T11:12:22.015Z,56.43
2024-01-12T11:13:29.517Z,67.88
2024-01-12T11:14:36.223Z,65.84
2024-01-12T11:15:42.861Z,55.40
2024-01-12T11:16:49.528Z,51.77
2024-01-12T11:17:56.275Z,52.08
2024-01-12T11:19:03.147Z,54.80
2024-01-12T11:20:10.036Z,51.73
2024-01-12T11:21:16.789Z,52.06
2024-01-12T11:22:23.428Z,52.10
2024-01-12T11:23:30.130Z,51.56
2024-01-12T11:24:36.804Z,52.16
2024-01-12T11:25:43.477Z,52.28
2024-01-12T11:26:50.171Z,52.46
2024-01-12T11:27:56.814Z,51.33
2024-01-12T11:29:03.491Z,51.83
2024-01-12T11:30:12.682Z,63.27
2024-01-12T11:31:20.468Z,79.44
2024-01-12T11:32:27.285Z,58.29
2024-01-12T11:33:34.030Z,54.49
2024-01-12T11:34:40.998Z,56.23
2024-01-12T11:35:47.843Z,56.17
2024-01-12T11:36:54.500Z,60.98
2024-01-12T11:38:01.175Z,57.00
2024-01-12T11:39:07.907Z,54.35
2024-01-12T11:40:14.599Z,54.32
2024-01-12T11:41:21.310Z,54.85
2024-01-12T11:42:27.976Z,54.06
2024-01-12T11:43:34.932Z,54.71
2024-01-12T11:44:41.629Z,60.63
2024-01-12T11:45:48.277Z,63.39
2024-01-12T11:46:54.970Z,60.65
2024-01-12T11:48:01.668Z,71.23
2024-01-12T11:49:08.536Z,53.98
2024-01-12T11:50:15.231Z,53.16
2024-01-12T11:51:21.878Z,54.56
2024-01-12T11:52:28.565Z,51.73
2024-01-12T11:53:35.271Z,50.58
2024-01-12T11:54:42.036Z,61.22
2024-01-12T11:55:48.710Z,56.64
2024-01-12T11:56:55.390Z,78.53
2024-01-12T11:58:02.046Z,73.22
2024-01-12T11:59:08.703Z,77.27
2024-01-12T12:00:15.457Z,79.78
2024-01-12T12:01:22.172Z,80.45
2024-01-12T12:02:28.878Z,79.12
2024-01-12T12:03:35.516Z,78.81
2024-01-12T12:04:42.196Z,76.16
2024-01-12T12:05:48.979Z,64.78
2024-01-12T12:06:55.827Z,68.91
2024-01-12T12:08:02.530Z,69.95
2024-01-12T12:09:09.270Z,51.31
2024-01-12T12:10:15.938Z,52.23
2024-01-12T12:11:22.656Z,65.74
2024-01-12T12:12:29.317Z,77.27
2024-01-12T12:13:39.001Z,69.92
2024-01-12T12:14:46.818Z,52.38
2024-01-12T12:15:53.455Z,51.59
2024-01-12T12:17:00.124Z,55.04
2024-01-12T12:18:06.909Z,55.39
2024-01-12T12:19:13.846Z,54.50
2024-01-12T12:20:20.712Z,58.12
2024-01-12T12:21:27.371Z,53.21
2024-01-12T12:22:34.048Z,53.24
2024-01-12T12:23:40.718Z,54.84
2024-01-12T12:24:47.368Z,54.17
2024-01-12T12:25:54.264Z,53.07
2024-01-12T12:27:01.028Z,54.38
2024-01-12T12:28:07.747Z,67.94
2024-01-12T12:29:14.409Z,79.20
2024-01-12T12:30:21.198Z,67.66
2024-01-12T12:31:27.862Z,60.63
2024-01-12T12:32:35.102Z,77.06
2024-01-12T12:33:41.882Z,66.72
2024-01-12T12:34:48.695Z,60.89
2024-01-12T12:35:55.342Z,76.61
2024-01-12T12:37:02.008Z,78.88
2024-01-12T12:38:08.664Z,76.59
2024-01-12T12:39:15.320Z,78.83
2024-01-12T12:40:21.979Z,78.03
2024-01-12T12:41:28.758Z,84.41
2024-01-12T12:42:35.399Z,82.55
2024-01-12T12:43:42.073Z,81.36
2024-01-12T12:44:48.751Z,84.95
2024-01-12T12:45:55.418Z,81.32
2024-01-12T12:47:02.088Z,80.42
2024-01-12T12:48:10.783Z,81.24
2024-01-12T12:49:19.077Z,79.07
2024-01-12T12:50:25.882Z,82.85
2024-01-12T12:51:32.553Z,81.64
2024-01-12T12:52:39.211Z,75.07
2024-01-12T12:53:45.977Z,75.59
2024-01-12T12:54:53.290Z,77.31
2024-01-12T12:55:59.964Z,54.53
2024-01-12T12:57:06.716Z,54.25
2024-01-12T12:58:13.436Z,53.35
2024-01-12T12:59:20.172Z,53.62
2024-01-12T13:00:26.865Z,53.34
2024-01-12T13:01:33.503Z,57.57
2024-01-12T13:02:40.355Z,53.79
2024-01-12T13:03:47.184Z,54.73
2024-01-12T13:04:53.833Z,55.47
2024-01-12T13:06:00.570Z,54.85
2024-01-12T13:07:07.310Z,53.71
2024-01-12T13:08:13.932Z,54.61
2024-01-12T13:09:20.624Z,57.27
2024-01-12T13:10:27.289Z,56.15
2024-01-12T13:11:33.971Z,59.04
2024-01-12T13:12:40.642Z,53.41
2024-01-12T13:13:47.280Z,53.79
2024-01-12T13:14:54.054Z,54.56
2024-01-12T13:16:00.830Z,57.04
2024-01-12T13:17:07.501Z,54.49
2024-01-12T13:18:14.236Z,56.17
2024-01-12T13:19:25.881Z,52.66
2024-01-12T13:20:32.574Z,52.99
2024-01-12T13:21:39.274Z,53.03
2024-01-12T13:22:47.674Z,52.88
2024-01-12T13:23:54.399Z,53.57
2024-01-12T13:25:01.058Z,67.72
2024-01-12T13:26:07.741Z,79.44
2024-01-12T13:27:14.439Z,78.32
2024-01-12T13:28:21.105Z,80.89
2024-01-12T13:29:27.817Z,82.09
2024-01-12T13:30:34.587Z,79.99
2024-01-12T13:31:41.267Z,77.74
2024-01-12T13:32:48.186Z,78.89
2024-01-12T13:33:55.052Z,65.48
2024-01-12T13:35:01.855Z,52.77
2024-01-12T13:36:08.616Z,71.56
2024-01-12T13:37:15.310Z,53.46
2024-01-12T13:38:22.041Z,54.65
2024-01-12T13:39:28.715Z,81.07
2024-01-12T13:40:35.404Z,79.28
2024-01-12T13:41:42.139Z,77.52
2024-01-12T13:42:49.021Z,75.51
2024-01-12T13:43:55.686Z,80.20
2024-01-12T13:45:03.034Z,71.41
2024-01-12T13:46:09.973Z,74.87
2024-01-12T13:47:16.751Z,77.93
2024-01-12T13:48:23.553Z,72.88
2024-01-12T13:49:30.782Z,73.48
2024-01-12T13:50:37.656Z,69.84
2024-01-12T13:51:44.471Z,77.14
2024-01-12T13:52:51.115Z,74.10
2024-01-12T13:53:57.818Z,54.32
2024-01-12T13:55:04.473Z,53.54
2024-01-12T13:56:11.152Z,59.15
2024-01-12T13:57:17.891Z,77.10
2024-01-12T13:58:24.548Z,76.42
2024-01-12T13:59:31.238Z,77.67
2024-01-12T14:00:37.874Z,81.02
2024-01-12T14:01:44.537Z,76.54
2024-01-12T14:02:51.289Z,79.57
2024-01-12T14:03:57.994Z,80.49
2024-01-12T14:05:13.850Z,81.46
2024-01-12T14:06:16.644Z,73.80
2024-01-12T14:07:23.634Z,74.32
2024-01-12T14:08:30.395Z,68.67
2024-01-12T14:09:37.087Z,65.16
2024-01-12T14:10:43.750Z,63.17
2024-01-12T14:11:50.516Z,74.92
2024-01-12T14:12:57.288Z,74.96
2024-01-12T14:14:04.012Z,72.45
2024-01-12T14:15:10.704Z,70.60
2024-01-12T14:16:17.378Z,71.71
2024-01-12T14:17:24.078Z,66.34
2024-01-12T14:18:30.931Z,73.10
2024-01-12T14:19:37.830Z,75.05
2024-01-12T14:20:44.540Z,73.82